Time;durP1;ratioP1;P1;durP2;ratioP2;P2;SDS_P1;SDS_P2;PMS_P1;PMS_P2;Temp;Humidity;BMP_temperature;BMP_pressure;BME280_temperature;BME280_humidity;BME280_pressure;Samples;Min_cycle;Max_cycle;Signal;HPM_P1;HPM_P2
2023/11/11 00:00:07;;;;;;;7.50;2.00;;;;;;;18.50;62.08;100179.84;107921;1289;22014;-67
2023/11/11 00:02:32;;;;;;;8.00;1.90;;;;;;;18.46;62.95;100185.17;107903;1289;23621;-62
2023/11/11 00:04:58;;;;;;;7.90;2.20;;;;;;;18.41;63.15;100185.91;107928;1289;21990;-74
2023/11/11 00:07:24;;;;;;;13.60;2.50;;;;;;;18.39;63.95;100181.25;107942;1289;21992;-62
2023/11/11 00:09:50;;;;;;;8.00;2.20;;;;;;;18.34;65.00;100169.73;107888;1289;23264;-73
2023/11/11 00:12:17;;;;;;;8.90;2.50;;;;;;;18.31;64.15;100160.66;108648;1289;23705;-64
2023/11/11 00:14:45;;;;;;;9.70;2.30;;;;;;;18.29;63.86;100142.45;107932;1289;21993;-73
2023/11/11 00:17:11;;;;;;;10.40;2.70;;;;;;;18.28;62.99;100133.27;107866;1289;23615;-73
2023/11/11 00:19:37;;;;;;;7.90;2.00;;;;;;;18.29;62.80;100119.55;107925;1281;21991;-63
2023/11/11 00:22:04;;;;;;;10.20;2.80;;;;;;;18.31;62.42;100105.05;107935;1287;22010;-70
2023/11/11 00:24:31;;;;;;;12.70;2.30;;;;;;;18.35;61.98;100095.48;107988;1283;24398;-63
2023/11/11 00:26:57;;;;;;;9.20;2.60;;;;;;;18.39;61.82;100089.24;107879;1284;23052;-64
2023/11/11 00:29:23;;;;;;;9.30;2.40;;;;;;;18.40;62.38;100096.79;107936;1284;23036;-64
2023/11/11 00:31:49;;;;;;;10.50;2.10;;;;;;;18.40;63.70;100106.04;107932;1284;22000;-70
2023/11/11 00:34:16;;;;;;;8.10;2.00;;;;;;;18.38;64.35;100111.98;107971;1289;22083;-71
2023/11/11 00:36:42;;;;;;;9.00;2.10;;;;;;;18.36;65.73;100105.19;108024;1288;22160;-63
2023/11/11 00:39:11;;;;;;;9.60;2.40;;;;;;;18.36;65.80;100097.73;107920;1284;21995;-63
2023/11/11 00:41:40;;;;;;;11.50;2.90;;;;;;;18.36;66.51;100099.86;107968;1289;23722;-61
2023/11/11 00:44:09;;;;;;;17.40;4.00;;;;;;;18.32;66.91;100098.45;107941;1289;23612;-64
2023/11/11 00:46:39;;;;;;;10.30;2.50;;;;;;;18.26;67.36;100087.39;107916;1289;21981;-71
2023/11/11 00:49:08;;;;;;;9.60;2.40;;;;;;;18.21;67.43;100086.88;107959;1289;21989;-64
2023/11/11 00:51:36;;;;;;;9.70;2.80;;;;;;;18.20;67.76;100081.81;107974;1289;23048;-75
2023/11/11 00:54:02;;;;;;;8.00;2.20;;;;;;;18.22;66.75;100062.73;108003;1289;22009;-66
2023/11/11 00:56:28;;;;;;;8.90;2.50;;;;;;;18.25;66.51;100049.77;108392;1289;188283;-73
2023/11/11 00:58:54;;;;;;;11.90;2.90;;;;;;;18.28;66.07;100048.38;108204;1289;22028;-73
2023/11/11 01:01:20;;;;;;;8.00;2.50;;;;;;;18.31;66.60;100046.80;107933;1289;22464;-65
2023/11/11 01:03:46;;;;;;;6.90;2.20;;;;;;;18.33;66.84;100031.77;107920;1282;21992;-71
2023/11/11 01:06:12;;;;;;;9.60;2.20;;;;;;;18.36;66.23;100028.45;107936;1289;22264;-65
2023/11/11 01:08:37;;;;;;;8.50;2.50;;;;;;;18.37;67.45;100024.14;107903;1289;22355;-73
2023/11/11 01:11:03;;;;;;;10.90;3.20;;;;;;;18.37;67.95;100014.37;107945;1289;22000;-75
2023/11/11 01:13:29;;;;;;;7.10;2.00;;;;;;;18.36;66.95;100005.89;107906;1289;21999;-66
2023/11/11 01:15:59;;;;;;;8.20;2.40;;;;;;;18.35;67.19;100000.08;107955;1287;21994;-72
2023/11/11 01:18:29;;;;;;;7.00;2.00;;;;;;;18.34;67.20;99985.74;107929;1284;21988;-73
2023/11/11 01:20:56;;;;;;;6.30;2.20;;;;;;;18.32;67.62;99978.20;107957;1289;21999;-71
2023/11/11 01:23:22;;;;;;;5.30;1.60;;;;;;;18.32;66.80;99972.38;107949;1289;22047;-72
2023/11/11 01:25:48;;;;;;;5.20;1.80;;;;;;;18.32;66.12;99964.22;107916;1287;22159;-66
2023/11/11 01:28:13;;;;;;;6.60;2.00;;;;;;;18.31;66.38;99963.16;107968;1289;22000;-74
2023/11/11 01:30:39;;;;;;;5.90;1.90;;;;;;;18.30;66.10;99962.52;107952;1289;22133;-74
2023/11/11 01:33:06;;;;;;;5.70;2.20;;;;;;;18.27;66.73;99956.08;107945;1289;22767;-66
2023/11/11 01:35:32;;;;;;;6.20;1.70;;;;;;;18.24;66.75;99953.04;107970;1289;21992;-72
2023/11/11 01:37:57;;;;;;;7.00;1.80;;;;;;;18.21;67.07;99948.35;107917;1284;22177;-69
2023/11/11 01:40:23;;;;;;;6.20;2.10;;;;;;;18.19;66.98;99940.86;107918;1289;21992;-65
2023/11/11 01:42:49;;;;;;;6.80;2.10;;;;;;;18.16;67.01;99931.94;107972;1289;21987;-70
2023/11/11 01:45:15;;;;;;;7.00;1.70;;;;;;;18.14;67.06;99929.92;108005;1289;21996;-66
2023/11/11 01:47:41;;;;;;;6.10;1.70;;;;;;;18.13;67.38;99934.59;107970;1285;22010;-72
2023/11/11 01:50:07;;;;;;;5.50;1.90;;;;;;;18.13;67.19;99930.15;108003;1289;22028;-71
2023/11/11 01:52:33;;;;;;;6.70;1.90;;;;;;;18.13;66.71;99922.15;108003;1289;21988;-65
2023/11/11 01:54:59;;;;;;;7.40;2.20;;;;;;;18.13;66.88;99913.47;107909;1289;22001;-71
2023/11/11 01:57:25;;;;;;;6.30;1.80;;;;;;;18.12;66.34;99903.02;107912;1285;22457;-65
2023/11/11 01:59:50;;;;;;;5.10;1.70;;;;;;;18.12;66.35;99897.90;107837;1289;22001;-72
2023/11/11 02:02:16;;;;;;;6.90;1.80;;;;;;;18.11;66.54;99897.38;107985;1289;21993;-71
2023/11/11 02:04:42;;;;;;;8.90;2.30;;;;;;;18.11;66.84;99895.64;107834;1289;21987;-72
2023/11/11 02:07:07;;;;;;;5.50;1.70;;;;;;;18.11;66.28;99896.69;107757;1290;21993;-65
2023/11/11 02:09:33;;;;;;;6.70;2.70;;;;;;;18.10;66.58;99891.08;107682;1284;23646;-72
2023/11/11 02:11:59;;;;;;;7.10;1.70;;;;;;;18.08;67.05;99887.64;107808;1290;21993;-66
2023/11/11 02:14:24;;;;;;;4.90;1.70;;;;;;;18.07;66.47;99883.41;107811;1290;22031;-64
2023/11/11 02:16:50;;;;;;;6.50;1.60;;;;;;;18.07;67.18;99881.45;107801;1290;21997;-66
2023/11/11 02:19:16;;;;;;;5.30;1.60;;;;;;;18.06;67.25;99877.63;107816;1290;23188;-72
2023/11/11 02:21:42;;;;;;;8.00;1.90;;;;;;;18.05;67.43;99873.41;107850;1286;21990;-65
2023/11/11 02:24:11;;;;;;;5.20;1.90;;;;;;;18.06;66.94;99869.47;107851;1290;21993;-65
2023/11/11 02:26:37;;;;;;;5.10;1.80;;;;;;;18.05;67.30;99868.07;107842;1290;21992;-64
2023/11/11 02:29:03;;;;;;;9.90;2.60;;;;;;;18.03;68.37;99858.98;107718;1280;23074;-65
2023/11/11 02:31:29;;;;;;;7.00;2.30;;;;;;;17.96;69.16;99853.94;107854;1288;22029;-80
2023/11/11 02:33:57;;;;;;;10.50;2.00;;;;;;;17.91;67.75;99847.27;107814;1290;21999;-77
2023/11/11 02:36:23;;;;;;;9.40;1.80;;;;;;;17.89;67.43;99841.17;107964;1290;21995;-66
2023/11/11 02:38:48;;;;;;;5.20;1.90;;;;;;;17.87;68.28;99840.02;107831;1290;21993;-65
2023/11/11 02:41:14;;;;;;;6.40;1.80;;;;;;;17.87;68.40;99834.55;107816;1290;21989;-65
2023/11/11 02:43:39;;;;;;;6.60;2.00;;;;;;;17.88;68.32;99831.30;107808;1290;21953;-73
2023/11/11 02:46:05;;;;;;;6.10;2.10;;;;;;;17.88;68.41;99827.38;107814;1290;21992;-75
2023/11/11 02:48:31;;;;;;;5.10;1.50;;;;;;;17.89;68.83;99823.26;107817;1290;21990;-67
2023/11/11 02:50:57;;;;;;;6.00;1.90;;;;;;;17.90;68.25;99812.02;108309;1290;21991;-80
2023/11/11 02:53:23;;;;;;;4.70;1.60;;;;;;;17.91;68.67;99800.80;107894;1290;22458;-66
2023/11/11 02:55:49;;;;;;;7.30;1.80;;;;;;;17.91;68.11;99797.23;107874;1290;21958;-76
2023/11/11 02:58:15;;;;;;;4.90;1.60;;;;;;;17.91;67.96;99789.95;107850;1290;22164;-65
2023/11/11 03:00:43;;;;;;;5.50;1.70;;;;;;;17.91;67.89;99783.55;107866;1290;21992;-65
2023/11/11 03:03:09;;;;;;;9.20;1.70;;;;;;;17.92;67.59;99780.34;107848;1290;21988;-74
2023/11/11 03:05:35;;;;;;;5.90;1.60;;;;;;;17.92;68.27;99776.96;107807;1290;22004;-64
2023/11/11 03:08:01;;;;;;;6.30;1.80;;;;;;;17.92;67.67;99770.56;107878;1290;23736;-71
2023/11/11 03:10:27;;;;;;;4.90;1.40;;;;;;;17.93;67.13;99765.35;107691;1290;21992;-65
2023/11/11 03:12:53;;;;;;;4.50;1.80;;;;;;;17.95;67.40;99761.88;107822;1290;22071;-77
2023/11/11 03:15:18;;;;;;;8.30;2.50;;;;;;;17.94;67.32;99759.63;107872;1289;21992;-75
2023/11/11 03:17:45;;;;;;;4.30;1.50;;;;;;;17.93;67.47;99755.03;107841;1290;21992;-77
2023/11/11 03:20:11;;;;;;;9.20;1.90;;;;;;;17.93;67.36;99759.33;107815;1290;21995;-75
2023/11/11 03:22:38;;;;;;;8.90;2.30;;;;;;;17.91;67.55;99753.73;107923;1290;21995;-63
2023/11/11 03:25:05;;;;;;;10.50;2.40;;;;;;;17.89;67.96;99745.17;107870;1283;21995;-64
2023/11/11 03:27:31;;;;;;;7.80;1.90;;;;;;;17.85;68.62;99739.17;107864;1280;21999;-77
2023/11/11 03:29:58;;;;;;;7.40;1.70;;;;;;;17.80;67.82;99730.55;107863;1290;22263;-79
2023/11/11 03:32:25;;;;;;;7.30;2.20;;;;;;;17.78;67.44;99724.42;107845;1290;22033;-64
2023/11/11 03:34:51;;;;;;;6.30;1.90;;;;;;;17.79;67.48;99724.04;107842;1284;22050;-77
2023/11/11 03:37:17;;;;;;;7.50;2.40;;;;;;;17.78;67.22;99722.64;107919;1290;21993;-75
2023/11/11 03:39:43;;;;;;;9.60;1.90;;;;;;;17.79;67.03;99729.33;108572;1290;21970;-75
2023/11/11 03:42:10;;;;;;;7.80;2.00;;;;;;;17.80;67.22;99733.57;107968;1290;23602;-63
2023/11/11 03:44:36;;;;;;;8.80;2.90;;;;;;;17.80;67.33;99733.73;107834;1280;21986;-63
2023/11/11 03:47:01;;;;;;;12.30;2.50;;;;;;;17.79;67.42;99732.35;107856;1290;21987;-76
2023/11/11 03:49:27;;;;;;;9.90;2.40;;;;;;;17.78;68.50;99727.96;107741;1290;23647;-76
2023/11/11 03:51:53;;;;;;;9.50;2.20;;;;;;;17.75;68.64;99727.42;107826;1290;23040;-64
2023/11/11 03:54:18;;;;;;;7.20;2.60;;;;;;;17.73;69.16;99733.23;107809;1290;22262;-65
2023/11/11 03:56:46;;;;;;;9.70;2.00;;;;;;;17.69;69.12;99725.80;107820;1289;21990;-79
2023/11/11 03:59:12;;;;;;;5.90;1.80;;;;;;;17.64;69.10;99726.56;107846;1281;23712;-64
2023/11/11 04:01:37;;;;;;;9.60;2.00;;;;;;;17.62;68.82;99716.39;107904;1284;22085;-64
2023/11/11 04:04:03;;;;;;;5.60;1.90;;;;;;;17.62;70.16;99724.03;107874;1289;21992;-63
2023/11/11 04:06:29;;;;;;;8.80;2.60;;;;;;;17.59;70.29;99722.74;107894;1286;22265;-64
2023/11/11 04:08:55;;;;;;;6.20;1.80;;;;;;;17.58;69.75;99719.80;107836;1289;24414;-64
2023/11/11 04:11:22;;;;;;;11.10;2.30;;;;;;;17.57;70.21;99711.34;107854;1289;23635;-76
2023/11/11 04:13:47;;;;;;;7.10;2.10;;;;;;;17.57;69.55;99697.52;107870;1284;21999;-78
2023/11/11 04:16:14;;;;;;;4.10;1.50;;;;;;;17.57;69.08;99682.23;107868;1289;23660;-76
2023/11/11 04:18:41;;;;;;;7.90;2.10;;;;;;;17.61;69.55;99678.67;107863;1284;21990;-77
2023/11/11 04:21:08;;;;;;;6.60;1.90;;;;;;;17.64;69.40;99678.88;107874;1289;22004;-77
2023/11/11 04:23:34;;;;;;;9.20;1.90;;;;;;;17.67;69.14;99670.01;108053;1289;22161;-75
2023/11/11 04:26:03;;;;;;;5.00;1.60;;;;;;;17.69;68.98;99664.19;107967;1281;21989;-76
2023/11/11 04:28:29;;;;;;;4.70;1.50;;;;;;;17.71;68.94;99652.61;107936;1289;22006;-80
2023/11/11 04:30:54;;;;;;;9.50;2.20;;;;;;;17.72;70.06;99642.98;107925;1289;21991;-78
2023/11/11 04:33:20;;;;;;;9.40;2.90;;;;;;;17.70;71.54;99641.98;107961;1289;21957;-75
2023/11/11 04:35:46;;;;;;;11.30;2.20;;;;;;;17.70;70.94;99638.44;107985;1289;22047;-69
2023/11/11 04:38:12;;;;;;;7.10;1.70;;;;;;;17.71;72.10;99628.64;107971;1289;22203;-67
2023/11/11 04:40:38;;;;;;;8.70;2.30;;;;;;;17.74;72.09;99629.38;108148;1289;23348;-67
2023/11/11 04:43:03;;;;;;;10.60;3.10;;;;;;;17.76;71.68;99631.23;108027;1278;22000;-79
2023/11/11 04:45:32;;;;;;;10.70;2.20;;;;;;;17.79;70.84;99635.33;107987;1289;21994;-65
2023/11/11 04:47:57;;;;;;;13.10;2.30;;;;;;;17.82;70.76;99631.42;108012;1289;21987;-66
2023/11/11 04:50:24;;;;;;;9.40;2.30;;;;;;;17.85;70.91;99644.39;108014;1289;21999;-76
2023/11/11 04:52:50;;;;;;;13.10;2.90;;;;;;;17.88;70.73;99653.62;108084;1289;22046;-66
2023/11/11 04:55:17;;;;;;;10.10;2.70;;;;;;;17.93;70.45;99645.53;107977;1288;22002;-75
2023/11/11 04:57:43;;;;;;;8.50;3.20;;;;;;;17.98;70.42;99639.45;108069;1289;22029;-65
2023/11/11 05:00:13;;;;;;;11.40;2.80;;;;;;;18.03;70.11;99636.89;107993;1289;22044;-65
2023/11/11 05:02:39;;;;;;;12.10;2.10;;;;;;;18.07;70.85;99637.55;107981;1281;22009;-75
2023/11/11 05:05:05;;;;;;;7.60;2.10;;;;;;;18.11;70.48;99635.93;107958;1282;23249;-74
2023/11/11 05:07:32;;;;;;;6.70;2.50;;;;;;;18.14;71.11;99634.70;108008;1289;21986;-74
2023/11/11 05:09:59;;;;;;;9.90;2.60;;;;;;;18.17;70.90;99630.59;108014;1289;21992;-73
2023/11/11 05:12:24;;;;;;;11.20;2.30;;;;;;;18.23;70.88;99623.04;108048;1284;23767;-65
2023/11/11 05:14:52;;;;;;;8.80;2.00;;;;;;;18.27;70.57;99622.24;107962;1284;21994;-74
2023/11/11 05:17:25;;;;;;;11.10;2.60;;;;;;;18.34;70.41;99624.54;108072;1289;22004;-65
2023/11/11 05:19:53;;;;;;;7.30;2.10;;;;;;;18.40;70.98;99619.74;107981;1289;21992;-74
2023/11/11 05:22:18;;;;;;;10.60;2.10;;;;;;;18.44;70.93;99618.27;108117;1289;21998;-73
2023/11/11 05:24:44;;;;;;;9.30;2.20;;;;;;;18.47;71.24;99620.25;107994;1284;21995;-66
2023/11/11 05:27:10;;;;;;;12.60;3.30;;;;;;;18.50;71.25;99618.64;108030;1289;21993;-73
2023/11/11 05:29:36;;;;;;;9.60;2.00;;;;;;;18.53;71.27;99620.23;107989;1289;22019;-73
2023/11/11 05:32:03;;;;;;;21.20;3.90;;;;;;;18.57;71.71;99620.16;107997;1289;22028;-71
2023/11/11 05:34:28;;;;;;;12.40;3.20;;;;;;;18.63;71.51;99614.15;108019;1287;21985;-73
2023/11/11 05:36:55;;;;;;;12.80;3.60;;;;;;;18.69;71.70;99611.16;108009;1276;22047;-72
2023/11/11 05:39:20;;;;;;;14.40;3.20;;;;;;;18.74;71.67;99605.92;108001;1289;24077;-66
2023/11/11 05:41:46;;;;;;;10.30;3.80;;;;;;;18.77;73.03;99611.40;108007;1289;21996;-71
2023/11/11 05:44:12;;;;;;;13.50;2.80;;;;;;;18.81;72.64;99610.08;107987;1289;21992;-68
2023/11/11 05:46:39;;;;;;;10.90;2.70;;;;;;;18.84;72.80;99609.76;107972;1289;21977;-66
2023/11/11 05:49:05;;;;;;;15.20;2.70;;;;;;;18.88;73.16;99608.27;108025;1289;22030;-66
2023/11/11 05:51:33;;;;;;;12.00;2.60;;;;;;;18.92;73.58;99605.73;108027;1289;21987;-71
2023/11/11 05:54:01;;;;;;;9.80;2.40;;;;;;;18.95;72.83;99604.85;107981;1289;21998;-67
2023/11/11 05:56:27;;;;;;;9.00;2.40;;;;;;;18.98;72.63;99599.36;107997;1289;21990;-65
2023/11/11 05:58:53;;;;;;;13.30;3.80;;;;;;;19.03;72.60;99599.23;107973;1278;21990;-66
2023/11/11 06:01:19;;;;;;;9.90;3.00;;;;;;;19.09;72.65;99601.77;107998;1281;21997;-66
2023/11/11 06:03:45;;;;;;;11.50;3.90;;;;;;;19.12;72.63;99598.70;107830;1289;22029;-72
2023/11/11 06:06:11;;;;;;;10.50;3.60;;;;;;;19.15;72.77;99594.11;108014;1289;21992;-71
2023/11/11 06:08:36;;;;;;;14.70;4.60;;;;;;;19.16;73.38;99589.02;107989;1289;22011;-71
2023/11/11 06:11:03;;;;;;;8.50;3.00;;;;;;;19.17;72.69;99588.06;107964;1287;21987;-66
2023/11/11 06:13:29;;;;;;;10.20;4.10;;;;;;;19.19;72.82;99582.63;107980;1289;21990;-67
2023/11/11 06:15:54;;;;;;;13.20;4.20;;;;;;;19.21;73.10;99583.73;108100;1284;23732;-63
2023/11/11 06:18:20;;;;;;;7.50;2.30;;;;;;;19.22;73.01;99579.74;108004;1281;21994;-67
2023/11/11 06:20:46;;;;;;;10.40;2.30;;;;;;;19.24;72.87;99574.31;107998;1289;22001;-72
2023/11/11 06:23:11;;;;;;;9.50;2.30;;;;;;;19.25;72.99;99569.79;108012;1281;21990;-66
2023/11/11 06:25:37;;;;;;;9.90;2.40;;;;;;;19.28;72.91;99569.46;107959;1289;22002;-66
2023/11/11 06:28:02;;;;;;;12.10;2.80;;;;;;;19.30;73.21;99563.66;107963;1287;22014;-66
2023/11/11 06:30:28;;;;;;;10.40;2.20;;;;;;;19.32;73.20;99558.52;107957;1289;22002;-72
2023/11/11 06:32:56;;;;;;;8.10;2.10;;;;;;;19.35;73.29;99557.98;107814;1289;21989;-66
2023/11/11 06:35:26;;;;;;;9.80;2.20;;;;;;;19.38;73.37;99555.52;108572;1289;22028;-75
2023/11/11 06:37:53;;;;;;;8.70;2.40;;;;;;;19.41;73.24;99551.96;108062;1289;22005;-76
2023/11/11 06:40:19;;;;;;;8.40;1.90;;;;;;;19.43;73.36;99551.97;107867;1289;21956;-65
2023/11/11 06:42:44;;;;;;;10.20;2.50;;;;;;;19.45;73.92;99549.20;108039;1289;22024;-65
2023/11/11 06:45:14;;;;;;;10.00;2.40;;;;;;;19.46;73.75;99547.72;107943;1289;22026;-75
2023/11/11 06:47:43;;;;;;;11.50;3.20;;;;;;;19.47;73.68;99541.23;107969;1289;23744;-76
2023/11/11 06:50:09;;;;;;;8.40;2.00;;;;;;;19.48;74.18;99540.81;107976;1286;21994;-65
2023/11/11 06:52:35;;;;;;;7.20;2.00;;;;;;;19.50;74.35;99538.61;107992;1289;21993;-76
2023/11/11 06:55:02;;;;;;;11.60;2.30;;;;;;;19.50;74.12;99537.38;107977;1289;21962;-66
2023/11/11 06:57:28;;;;;;;7.80;1.90;;;;;;;19.50;74.23;99543.58;108024;1280;23802;-65
2023/11/11 06:59:54;;;;;;;6.20;1.60;;;;;;;19.51;74.36;99543.50;107986;1289;22034;-76
2023/11/11 07:02:22;;;;;;;7.90;1.70;;;;;;;19.52;74.12;99539.15;107981;1289;22455;-63
2023/11/11 07:04:53;;;;;;;8.80;3.10;;;;;;;19.53;74.51;99535.91;107983;1286;23631;-65
2023/11/11 07:07:21;;;;;;;;;;;;;;;19.54;74.55;99531.95;108010;1289;21990;-65
2023/11/11 07:09:51;;;;;;;11.50;2.80;;;;;;;19.54;74.90;99533.53;107970;1289;21985;-77
2023/11/11 07:12:19;;;;;;;9.60;2.50;;;;;;;19.53;75.12;99530.73;108028;1288;21988;-74
2023/11/11 07:14:45;;;;;;;8.70;3.00;;;;;;;19.54;74.87;99528.92;108030;1289;22457;-76
2023/11/11 07:17:11;;;;;;;8.40;2.30;;;;;;;19.56;74.84;99530.05;108004;1289;23195;-67
2023/11/11 07:19:38;;;;;;;9.10;2.30;;;;;;;19.56;75.43;99526.64;107968;1289;21997;-76
2023/11/11 07:22:04;;;;;;;9.20;2.40;;;;;;;19.57;75.53;99526.95;107996;1289;22015;-74
2023/11/11 07:24:29;;;;;;;12.90;2.50;;;;;;;19.59;75.13;99526.30;108009;1289;22743;-65
2023/11/11 07:26:55;;;;;;;10.90;2.60;;;;;;;19.61;75.45;99519.23;107950;1289;21990;-65
2023/11/11 07:29:25;;;;;;;11.80;2.80;;;;;;;19.63;75.14;99514.64;107994;1289;22003;-65
2023/11/11 07:31:54;;;;;;;8.00;2.80;;;;;;;19.66;75.05;99512.69;107950;1289;22000;-74
2023/11/11 07:34:19;;;;;;;7.90;2.90;;;;;;;19.68;74.82;99506.29;107835;1289;21992;-65
2023/11/11 07:36:45;;;;;;;7.10;1.90;;;;;;;19.69;75.38;99499.11;108063;1289;21995;-65
2023/11/11 07:39:11;;;;;;;10.50;3.10;;;;;;;19.70;75.41;99495.51;107982;1289;21988;-66
2023/11/11 07:41:37;;;;;;;9.40;1.80;;;;;;;19.72;75.50;99492.55;108002;1289;21985;-75
2023/11/11 07:44:06;;;;;;;7.80;2.30;;;;;;;19.74;75.52;99486.35;107848;1289;21990;-74
2023/11/11 07:46:32;;;;;;;8.20;2.30;;;;;;;19.76;75.37;99479.42;107987;1289;21994;-66
2023/11/11 07:49:02;;;;;;;9.70;1.80;;;;;;;19.81;75.72;99478.09;107993;1282;21991;-74
2023/11/11 07:51:28;;;;;;;6.60;2.20;;;;;;;19.85;76.32;99478.88;108006;1287;23606;-75
2023/11/11 07:53:54;;;;;;;11.10;1.90;;;;;;;19.90;75.90;99467.56;107979;1289;22031;-73
2023/11/11 07:56:19;;;;;;;9.70;1.70;;;;;;;19.94;76.37;99458.73;108015;1289;21992;-73
2023/11/11 07:58:51;;;;;;;10.00;2.20;;;;;;;19.99;76.07;99450.77;107975;1289;22382;-69
2023/11/11 08:01:17;;;;;;;7.80;2.00;;;;;;;20.03;75.90;99445.84;108052;1289;22000;-65
2023/11/11 08:03:44;;;;;;;8.30;1.90;;;;;;;20.10;75.91;99445.42;107978;1289;21990;-73
2023/11/11 08:06:09;;;;;;;9.10;2.40;;;;;;;20.15;75.59;99440.41;108057;1289;22740;-66
2023/11/11 08:08:35;;;;;;;7.40;1.80;;;;;;;20.20;76.09;99442.06;108013;1289;21987;-66
2023/11/11 08:11:01;;;;;;;9.60;2.40;;;;;;;20.26;76.20;99447.41;108002;1289;22009;-67
2023/11/11 08:13:28;;;;;;;8.20;2.10;;;;;;;20.30;76.19;99447.84;107993;1289;23154;-65
2023/11/11 08:15:56;;;;;;;8.20;2.10;;;;;;;20.33;76.62;99451.88;108014;1283;21992;-65
2023/11/11 08:18:22;;;;;;;8.30;2.70;;;;;;;20.38;76.05;99446.94;108024;1283;21990;-70
2023/11/11 08:20:47;;;;;;;10.40;2.90;;;;;;;20.44;75.95;99445.12;108011;1289;21992;-65
2023/11/11 08:23:13;;;;;;;9.10;2.60;;;;;;;20.49;76.39;99443.52;108043;1289;23722;-70
2023/11/11 08:25:38;;;;;;;8.70;2.40;;;;;;;20.54;76.83;99442.68;108005;1289;21992;-70
2023/11/11 08:28:04;;;;;;;10.30;3.30;;;;;;;20.56;77.12;99437.48;107997;1288;21999;-70
2023/11/11 08:30:30;;;;;;;7.80;2.60;;;;;;;20.62;77.01;99435.50;108000;1289;22455;-69
2023/11/11 08:32:57;;;;;;;10.00;3.40;;;;;;;20.65;76.80;99434.73;107835;1289;21995;-66
2023/11/11 08:35:22;;;;;;;9.10;3.50;;;;;;;20.69;76.97;99427.03;108008;1289;22025;-66
2023/11/11 08:37:48;;;;;;;9.50;3.30;;;;;;;20.71;77.04;99421.69;107982;1289;21992;-68
2023/11/11 08:40:17;;;;;;;11.20;3.90;;;;;;;20.72;76.98;99421.97;107999;1287;21992;-69
2023/11/11 08:42:43;;;;;;;10.70;3.70;;;;;;;20.72;76.67;99415.06;108025;1289;21989;-66
2023/11/11 08:45:09;;;;;;;11.90;4.70;;;;;;;20.72;76.34;99410.61;107876;1289;22021;-68
2023/11/11 08:47:35;;;;;;;12.20;4.10;;;;;;;20.72;76.45;99417.69;108031;1283;21986;-77
2023/11/11 08:50:05;;;;;;;9.10;3.50;;;;;;;20.69;76.81;99413.29;108039;1289;21994;-64
2023/11/11 08:52:34;;;;;;;8.60;3.90;;;;;;;20.67;76.37;99405.96;108017;1284;21990;-65
2023/11/11 08:55:01;;;;;;;7.80;3.50;;;;;;;20.65;76.05;99401.42;107990;1289;22000;-64
2023/11/11 08:57:26;;;;;;;9.00;3.90;;;;;;;20.65;75.84;99394.80;108018;1289;21992;-64
2023/11/11 08:59:52;;;;;;;9.70;3.80;;;;;;;20.69;76.19;99388.85;107810;1289;22007;-64
2023/11/11 09:02:19;;;;;;;11.30;3.90;;;;;;;20.73;76.16;99379.66;108010;1281;21998;-73
2023/11/11 09:04:45;;;;;;;11.50;4.60;;;;;;;20.78;76.61;99380.56;107979;1289;21990;-74
2023/11/11 09:07:11;;;;;;;11.20;5.00;;;;;;;20.83;76.66;99374.52;108188;1289;21988;-74
2023/11/11 09:09:37;;;;;;;12.50;5.70;;;;;;;20.88;76.48;99371.46;107987;1289;22293;-65
2023/11/11 09:12:02;;;;;;;10.10;4.70;;;;;;;20.91;77.55;99364.86;107983;1280;21990;-65
2023/11/11 09:14:33;;;;;;;10.30;5.40;;;;;;;20.94;76.82;99355.36;108014;1289;22002;-65
2023/11/11 09:17:01;;;;;;;11.90;4.60;;;;;;;21.01;76.55;99342.82;107969;1289;22322;-75
2023/11/11 09:19:26;;;;;;;8.50;4.50;;;;;;;21.03;76.76;99338.19;108008;1280;23644;-65
2023/11/11 09:21:52;;;;;;;8.30;3.80;;;;;;;21.06;76.17;99338.86;108020;1288;22005;-73
2023/11/11 09:24:18;;;;;;;9.70;5.20;;;;;;;21.08;76.00;99329.91;107987;1284;21954;-69
2023/11/11 09:26:43;;;;;;;8.00;4.40;;;;;;;21.11;76.11;99319.59;107926;1289;21998;-63
2023/11/11 09:29:09;;;;;;;9.00;4.30;;;;;;;21.14;75.59;99313.63;108017;1289;21993;-63
2023/11/11 09:31:35;;;;;;;11.20;4.60;;;;;;;21.17;75.50;99310.38;107853;1287;21982;-63
2023/11/11 09:34:01;;;;;;;8.10;4.60;;;;;;;21.21;75.14;99299.19;108026;1289;21992;-64
2023/11/11 09:36:28;;;;;;;10.10;4.30;;;;;;;21.26;75.38;99295.84;108022;1289;21992;-72
2023/11/11 09:38:54;;;;;;;10.40;5.20;;;;;;;21.28;75.64;99289.60;107990;1289;23648;-78
2023/11/11 09:41:20;;;;;;;10.80;4.90;;;;;;;21.29;75.85;99286.13;108037;1289;21993;-64
2023/11/11 09:43:47;;;;;;;9.40;4.90;;;;;;;21.27;75.96;99280.41;108054;1289;21993;-65
2023/11/11 09:46:17;;;;;;;12.60;5.40;;;;;;;21.28;75.43;99277.34;108527;1289;21998;-64
2023/11/11 09:48:43;;;;;;;9.80;4.30;;;;;;;21.29;75.30;99273.88;108010;1289;21997;-74
2023/11/11 09:51:09;;;;;;;10.30;4.90;;;;;;;21.28;75.47;99266.21;108044;1289;21989;-74
2023/11/11 09:53:38;;;;;;;10.80;4.70;;;;;;;21.27;75.52;99258.81;107862;1289;21999;-65
2023/11/11 09:56:05;;;;;;;9.40;4.50;;;;;;;21.27;75.13;99255.94;107881;1289;22004;-74
2023/11/11 09:58:30;;;;;;;12.50;5.50;;;;;;;21.26;75.04;99250.34;108043;1289;21997;-73
2023/11/11 10:00:56;;;;;;;10.60;5.30;;;;;;;21.22;75.39;99251.11;107910;1289;22005;-73
2023/11/11 10:03:22;;;;;;;11.40;5.70;;;;;;;21.20;75.61;99243.84;108000;1280;21944;-75
2023/11/11 10:05:47;;;;;;;13.70;5.30;;;;;;;21.16;75.94;99236.83;108031;1289;21989;-63
2023/11/11 10:08:13;;;;;;;13.00;6.30;;;;;;;21.10;75.83;99233.67;107897;1289;21998;-64
2023/11/11 10:10:39;;;;;;;11.10;5.00;;;;;;;21.07;75.77;99229.98;108095;1289;21994;-64
2023/11/11 10:13:05;;;;;;;12.50;5.80;;;;;;;21.05;75.81;99219.41;107932;1289;21992;-63
2023/11/11 10:15:31;;;;;;;13.60;5.70;;;;;;;21.04;76.76;99210.73;108084;1289;23653;-64
2023/11/11 10:18:03;;;;;;;11.40;6.30;;;;;;;21.03;77.37;99207.45;108082;1289;21999;-67
2023/11/11 10:20:30;;;;;;;11.90;6.00;;;;;;;21.03;76.83;99201.15;108165;1289;21990;-65
2023/11/11 10:22:56;;;;;;;10.30;5.60;;;;;;;21.04;76.57;99196.45;108039;1283;21994;-69
2023/11/11 10:25:22;;;;;;;11.40;5.80;;;;;;;21.05;76.28;99192.14;108048;1289;21997;-77
2023/11/11 10:27:55;;;;;;;10.30;5.40;;;;;;;21.04;76.33;99189.70;108047;1281;22467;-77
2023/11/11 10:30:23;;;;;;;14.30;6.10;;;;;;;21.02;76.65;99184.66;108025;1289;22027;-64
2023/11/11 10:32:49;;;;;;;12.50;6.70;;;;;;;21.04;76.93;99174.55;108050;1289;22008;-76
2023/11/11 10:35:16;;;;;;;11.70;6.80;;;;;;;21.07;78.28;99171.80;107994;1289;22464;-65
2023/11/11 10:37:43;;;;;;;11.60;6.00;;;;;;;21.11;77.35;99161.90;107988;1289;21997;-75
2023/11/11 10:40:09;;;;;;;13.50;7.10;;;;;;;21.11;78.37;99164.95;107999;1289;21999;-65
2023/11/11 10:42:35;;;;;;;16.20;8.10;;;;;;;21.10;78.05;99161.27;108041;1281;24016;-77
2023/11/11 10:45:02;;;;;;;16.40;10.20;;;;;;;21.08;78.61;99149.77;107963;1289;21989;-78
2023/11/11 10:47:29;;;;;;;12.90;8.10;;;;;;;21.05;78.98;99144.55;108025;1289;22004;-80
2023/11/11 10:49:57;;;;;;;15.90;9.10;;;;;;;21.02;78.61;99142.43;107845;1289;22009;-66
2023/11/11 10:52:24;;;;;;;15.50;7.00;;;;;;;21.02;78.12;99136.86;108083;1283;21992;-70
2023/11/11 10:54:51;;;;;;;13.50;7.40;;;;;;;21.07;79.44;99130.10;108074;1289;21989;-65
2023/11/11 10:57:17;;;;;;;15.00;8.50;;;;;;;21.19;80.44;99130.05;108024;1277;23148;-65
2023/11/11 10:59:43;;;;;;;12.60;7.20;;;;;;;21.30;81.27;99132.80;108006;1289;21991;-73
2023/11/11 11:02:11;;;;;;;16.10;7.70;;;;;;;21.46;81.46;99130.89;107974;1289;22029;-65
2023/11/11 11:04:38;;;;;;;14.50;7.70;;;;;;;21.68;81.84;99132.08;107999;1289;21991;-71
2023/11/11 11:07:09;;;;;;;13.80;7.60;;;;;;;21.85;81.44;99128.39;107830;1283;22049;-69
2023/11/11 11:09:42;;;;;;;14.80;9.10;;;;;;;21.99;81.63;99126.45;107989;1289;21999;-66
2023/11/11 11:12:30;;;;;;;9.50;7.10;;;;;;;22.13;80.70;99120.49;107950;1289;23615;-67
2023/11/11 11:15:00;;;;;;;11.40;7.10;;;;;;;22.21;79.30;99112.17;108025;1284;22004;-66
2023/11/11 11:17:35;;;;;;;11.00;6.40;;;;;;;22.24;78.72;99116.74;107964;1289;21992;-66